Time;durP1;ratioP1;P1;durP2;ratioP2;P2;SDS_P1;SDS_P2;PMS_P1;PMS_P2;Temp;Humidity;BMP_temperature;BMP_pressure;BME280_temperature;BME280_humidity;BME280_pressure;Samples;Min_cycle;Max_cycle;Signal;HPM_P1;HPM_P2
2021/12/28 00:09:14;;;;;;;2.67;1.65;;;12.10;45.30;;;;;;20596150;28;20031;-78
2021/12/28 00:19:14;;;;;;;1.60;1.33;;;12.00;45.30;;;;;;20563886;28;20462;-79
2021/12/28 00:29:15;;;;;;;3.00;1.25;;;12.00;45.40;;;;;;20578702;28;20476;-79
2021/12/28 00:39:17;;;;;;;2.83;1.15;;;12.00;45.50;;;;;;20562250;28;20082;-79
2021/12/28 00:49:18;;;;;;;2.67;1.30;;;11.90;45.50;;;;;;20577817;28;20042;-80
2021/12/28 00:59:18;;;;;;;2.67;1.35;;;11.90;45.60;;;;;;20577082;28;20043;-79
2021/12/28 01:09:19;;;;;;;1.38;1.00;;;12.00;45.70;;;;;;20559959;28;20049;-79
2021/12/28 01:19:20;;;;;;;3.60;1.90;;;11.90;45.70;;;;;;20575732;28;20145;-79
2021/12/28 01:29:20;;;;;;;1.98;1.20;;;11.90;45.80;;;;;;20590686;28;20034;-79
2021/12/28 01:39:21;;;;;;;2.38;1.27;;;11.90;45.80;;;;;;20557003;28;20355;-80
2021/12/28 01:49:22;;;;;;;1.33;0.90;;;11.90;45.90;;;;;;20573086;28;20042;-79
2021/12/28 01:59:22;;;;;;;2.83;1.63;;;11.80;46.00;;;;;;20572132;28;20038;-79
2021/12/28 02:09:23;;;;;;;2.65;1.60;;;11.80;46.10;;;;;;20556520;28;20082;-80
2021/12/28 02:19:24;;;;;;;2.22;1.35;;;11.80;46.10;;;;;;20602719;28;20062;-79
2021/12/28 02:29:24;;;;;;;2.92;1.38;;;11.80;46.20;;;;;;20554359;28;20043;-79
2021/12/28 02:39:25;;;;;;;2.92;1.52;;;11.80;46.30;;;;;;20570055;28;20035;-80
2021/12/28 02:49:25;;;;;;;4.03;1.70;;;11.80;46.30;;;;;;20569140;28;20031;-80
2021/12/28 02:59:26;;;;;;;2.10;1.35;;;11.80;46.40;;;;;;20553474;28;20066;-79
2021/12/28 03:09:27;;;;;;;2.88;1.40;;;11.70;46.40;;;;;;20536374;28;20382;-80
2021/12/28 03:19:28;;;;;;;2.58;1.58;;;11.70;46.50;;;;;;20568018;28;20086;-79
2021/12/28 03:29:28;;;;;;;3.25;1.77;;;11.70;46.60;;;;;;20599984;28;20035;-80
2021/12/28 03:39:29;;;;;;;3.55;1.77;;;11.70;46.60;;;;;;20567051;28;20053;-79
2021/12/28 03:49:29;;;;;;;4.15;1.75;;;11.70;46.70;;;;;;20567166;28;20069;-80
2021/12/28 03:59:30;;;;;;;2.67;1.60;;;11.70;46.70;;;;;;20571437;28;20035;-80
2021/12/28 04:09:57;;;;;;;3.10;1.40;;;11.60;46.80;;;;;;20580994;28;20026;-79
2021/12/28 04:19:54;;;;;;;2.47;1.30;;;11.60;46.90;;;;;;20583407;28;20481;-80
2021/12/28 04:29:55;;;;;;;1.63;0.98;;;11.60;46.90;;;;;;20563478;28;20030;-81
2021/12/28 04:39:56;;;;;;;2.80;1.52;;;11.50;47.00;;;;;;20563136;28;20481;-80
2021/12/28 04:49:56;;;;;;;1.92;1.42;;;11.50;47.10;;;;;;20562063;28;20027;-80
2021/12/28 04:59:57;;;;;;;1.83;1.10;;;11.50;47.20;;;;;;20576918;28;20437;-79
2021/12/28 05:09:58;;;;;;;1.65;1.30;;;11.50;47.30;;;;;;20559679;28;20348;-80
2021/12/28 05:19:59;;;;;;;2.83;1.65;;;12.10;46.40;;;;;;20560133;28;20049;-80
2021/12/28 05:29:59;;;;;;;3.63;1.27;;;13.10;44.50;;;;;;20575033;28;20030;-80
2021/12/28 05:40:00;;;;;;;2.83;1.50;;;14.10;42.80;;;;;;20573979;28;20290;-80
2021/12/28 05:50:03;;;;;;;3.00;1.40;;;15.20;40.80;;;;;;20557939;28;20110;-80
2021/12/28 06:00:06;;;;;;;2.60;1.50;;;16.00;39.20;;;;;;20541319;28;20043;-80
2021/12/28 06:10:07;;;;;;;2.63;1.48;;;16.40;38.20;;;;;;20556341;28;20041;-79
2021/12/28 06:20:08;;;;;;;3.45;0.98;;;16.60;38.30;;;;;;20554658;28;20051;-79
2021/12/28 06:30:10;;;;;;;1.88;1.10;;;16.80;37.20;;;;;;20538919;28;20037;-81
2021/12/28 06:40:11;;;;;;;2.10;1.20;;;16.60;37.30;;;;;;20569153;28;20081;-79
2021/12/28 06:50:12;;;;;;;3.53;1.70;;;15.60;38.80;;;;;;20553252;28;20477;-80
2021/12/28 07:00:15;;;;;;;2.35;1.45;;;14.50;40.40;;;;;;20568741;28;20121;-80
2021/12/28 07:10:19;;;;;;;2.28;1.13;;;13.70;41.90;;;;;;20536852;28;20038;-81
2021/12/28 07:20:20;;;;;;;2.53;1.33;;;13.00;43.10;;;;;;20553165;28;20498;-80
2021/12/28 07:30:20;;;;;;;1.83;1.13;;;12.70;44.10;;;;;;20551654;28;20073;-79
2021/12/28 07:40:21;;;;;;;1.65;1.02;;;12.50;44.70;;;;;;20597609;28;20298;-80
2021/12/28 07:50:21;;;;;;;2.38;1.13;;;12.30;45.10;;;;;;20583152;28;20069;-80
2021/12/28 08:00:23;;;;;;;2.15;1.08;;;12.30;45.50;;;;;;20582767;28;20030;-80
2021/12/28 08:10:24;;;;;;;2.40;1.08;;;12.20;45.70;;;;;;20566028;28;20030;-80
2021/12/28 08:20:25;;;;;;;1.88;1.13;;;12.20;45.90;;;;;;20612472;28;20367;-84
2021/12/28 08:30:25;;;;;;;1.75;1.10;;;12.10;46.10;;;;;;20564098;28;20059;-80
2021/12/28 08:40:26;;;;;;;1.45;1.20;;;12.10;46.30;;;;;;20596059;28;20453;-79
2021/12/28 08:50:27;;;;;;;2.70;1.35;;;12.00;46.40;;;;;;20577760;28;20030;-79
2021/12/28 09:00:30;;;;;;;2.08;1.00;;;12.00;46.60;;;;;;20562347;28;20085;-79
2021/12/28 09:10:30;;;;;;;1.42;0.93;;;11.90;46.80;;;;;;20593617;28;20093;-80
2021/12/28 09:20:31;;;;;;;3.03;1.80;;;11.90;47.00;;;;;;20576083;28;20039;-79
2021/12/28 09:30:32;;;;;;;2.15;1.10;;;11.90;47.10;;;;;;20558534;28;20043;-81
2021/12/28 09:40:34;;;;;;;2.33;1.27;;;11.80;47.20;;;;;;20558388;28;20046;-81
2021/12/28 09:50:36;;;;;;;1.73;1.00;;;11.80;47.20;;;;;;20558192;28;20039;-80
2021/12/28 10:00:36;;;;;;;3.80;1.30;;;11.80;47.30;;;;;;20573046;28;20039;-80
2021/12/28 10:10:39;;;;;;;1.75;1.05;;;11.80;47.40;;;;;;20605185;28;20130;-80
2021/12/28 10:20:52;;;;;;;2.38;0.90;;;11.80;47.40;;;;;;20571476;28;20034;-80
2021/12/28 10:30:58;;;;;;;1.90;0.95;;;11.80;47.50;;;;;;20568927;28;20182;-79
2021/12/28 10:41:10;;;;;;;2.63;1.40;;;11.80;47.50;;;;;;20550670;28;20405;-80
2021/12/28 10:51:14;;;;;;;2.00;1.05;;;11.80;47.60;;;;;;20551297;28;20130;-79
2021/12/28 11:01:20;;;;;;;1.73;1.02;;;11.70;47.60;;;;;;20582021;28;20410;-80
2021/12/28 11:11:26;;;;;;;3.50;1.58;;;11.70;47.80;;;;;;20564306;28;20023;-80
2021/12/28 11:21:38;;;;;;;3.13;1.25;;;12.50;46.60;;;;;;20565894;28;20074;-80
2021/12/28 11:31:43;;;;;;;2.97;1.48;;;13.40;44.70;;;;;;21003981;23;1171901;-80
2021/12/28 11:41:45;;;;;;;1.85;1.15;;;13.40;44.40;;;;;;20711583;28;20030;-80
2021/12/28 11:51:46;;;;;;;2.50;1.48;;;12.50;45.70;;;;;;20711126;28;20556;-79
2021/12/28 12:01:54;;;;;;;2.00;1.02;;;12.00;46.90;;;;;;20726914;28;20042;-79
2021/12/28 12:12:08;;;;;;;2.22;1.25;;;13.10;45.50;;;;;;20711430;28;20041;-79
2021/12/28 12:22:30;;;;;;;2.63;1.35;;;14.80;42.30;;;;;;20748719;28;20038;-80
2021/12/28 12:32:59;;;;;;;2.15;1.10;;;16.00;40.10;;;;;;20740552;28;20038;-82
2021/12/28 12:43:12;;;;;;;1.58;0.95;;;16.60;38.90;;;;;;20758638;28;20034;-83
2021/12/28 12:53:55;;;;;;;3.35;1.33;;;16.90;38.20;;;;;;20724354;28;20038;-80
2021/12/28 13:04:00;;;;;;;5.57;2.53;;;17.00;37.90;;;;;;20737992;28;20125;-81
2021/12/28 13:14:02;;;;;;;2.95;1.88;;;16.80;38.50;;;;;;20718219;28;20132;-80
2021/12/28 13:24:10;;;;;;;4.03;1.60;;;15.90;39.60;;;;;;20689967;28;20464;-80
2021/12/28 13:34:10;;;;;;;2.33;1.15;;;14.80;41.30;;;;;;20729643;28;20037;-81
2021/12/28 13:44:12;;;;;;;2.08;1.10;;;13.90;42.90;;;;;;20676323;28;20084;-78
2021/12/28 13:54:13;;;;;;;2.92;1.20;;;13.90;43.20;;;;;;20653128;28;20472;-77
2021/12/28 14:04:19;;;;;;;3.90;1.20;;;14.60;42.40;;;;;;20685909;28;20121;-77
2021/12/28 14:14:32;;;;;;;1.98;1.35;;;15.30;41.20;;;;;;20665173;28;20048;-74
2021/12/28 14:24:32;;;;;;;2.67;1.57;;;15.90;40.30;;;;;;20646695;28;20026;-75
2021/12/28 14:34:38;;;;;;;2.20;1.33;;;16.20;39.70;;;;;;20710780;28;20049;-75
2021/12/28 14:44:43;;;;;;;2.25;1.10;;;15.60;40.50;;;;;;20728485;28;20033;-75
2021/12/28 14:55:08;;;;;;;4.15;1.40;;;14.80;41.80;;;;;;20744543;28;20053;-77
2021/12/28 15:05:10;;;;;;;1.63;1.30;;;14.00;43.30;;;;;;20813915;28;20034;-78
2021/12/28 15:15:11;;;;;;;7.47;2.30;;;13.30;44.50;;;;;;20765409;28;20038;-80
2021/12/28 15:25:14;;;;;;;4.05;1.77;;;12.80;46.30;;;;;;20708945;28;20030;-79
2021/12/28 15:35:19;;;;;;;4.97;1.88;;;12.50;47.20;;;;;;20666469;28;20044;-80
2021/12/28 15:45:20;;;;;;;2.60;1.38;;;12.50;47.60;;;;;;20700215;28;20037;-79
2021/12/28 15:55:22;;;;;;;4.07;1.50;;;13.40;46.10;;;;;;20773772;28;20484;-80
2021/12/28 16:05:23;;;;;;;3.00;1.60;;;14.50;44.20;;;;;;20728664;28;20048;-80
2021/12/28 16:15:24;;;;;;;4.95;1.85;;;15.40;42.30;;;;;;20745153;28;20038;-78
2021/12/28 16:25:24;;;;;;;6.55;1.48;;;16.10;41.00;;;;;;20705801;28;20031;-80
2021/12/28 16:35:25;;;;;;;4.30;1.50;;;16.40;40.20;;;;;;20686281;28;20045;-78
2021/12/28 16:45:27;;;;;;;2.40;1.10;;;16.40;40.70;;;;;;20642916;28;20045;-78
2021/12/28 16:55:27;;;;;;;3.22;1.20;;;15.60;41.20;;;;;;20669646;28;20380;-81
2021/12/28 17:05:28;;;;;;;3.53;1.48;;;14.70;42.70;;;;;;20640833;28;20058;-81
2021/12/28 17:15:29;;;;;;;3.07;1.47;;;13.90;44.20;;;;;;20657434;28;20041;-80
2021/12/28 17:25:29;;;;;;;4.35;1.35;;;13.30;45.40;;;;;;20659065;28;20294;-79
2021/12/28 17:35:30;;;;;;;2.77;1.03;;;12.90;46.50;;;;;;20712579;28;20088;-81
2021/12/28 17:45:30;;;;;;;1.58;0.90;;;12.60;47.30;;;;;;20660973;28;20355;-82
2021/12/28 17:55:31;;;;;;;2.28;0.95;;;12.50;47.90;;;;;;20639492;28;20046;-84
2021/12/28 18:05:32;;;;;;;2.50;1.02;;;12.40;48.20;;;;;;20639191;28;20038;-84
2021/12/28 18:15:33;;;;;;;2.42;0.98;;;12.40;48.40;;;;;;20670529;28;20033;-86
2021/12/28 18:25:35;;;;;;;2.10;0.90;;;12.40;48.50;;;;;;20736195;28;20149;-86
2021/12/28 18:35:39;;;;;;;2.05;1.13;;;12.50;48.60;;;;;;20736866;28;20386;-86
2021/12/28 18:45:40;;;;;;;1.73;0.90;;;12.40;48.50;;;;;;20721572;28;20072;-86
2021/12/28 18:55:42;;;;;;;2.40;1.20;;;12.50;48.60;;;;;;20753253;28;20034;-85
2021/12/28 19:05:44;;;;;;;1.38;0.80;;;12.50;48.60;;;;;;20720781;28;20710;-85
2021/12/28 19:15:44;;;;;;;2.78;1.20;;;12.50;48.70;;;;;;20718085;28;20140;-84
2021/12/28 19:25:45;;;;;;;3.40;0.95;;;12.50;48.70;;;;;;20716733;28;20030;-83
2021/12/28 19:35:46;;;;;;;1.73;1.25;;;12.50;48.70;;;;;;20746702;28;20045;-83
2021/12/28 19:45:50;;;;;;;1.67;1.13;;;12.50;48.80;;;;;;20732312;28;20096;-81
2021/12/28 19:55:50;;;;;;;1.65;1.10;;;12.50;48.80;;;;;;20748607;28;20038;-79
2021/12/28 20:05:51;;;;;;;1.42;0.93;;;12.50;48.90;;;;;;20762426;28;20079;-82
2021/12/28 20:15:52;;;;;;;1.70;1.17;;;12.40;48.90;;;;;;20761420;28;20038;-82
2021/12/28 20:25:57;;;;;;;1.05;0.73;;;12.40;49.00;;;;;;20744984;28;20096;-82
2021/12/28 20:35:57;;;;;;;1.27;0.77;;;12.40;49.10;;;;;;20711044;28;20046;-83
2021/12/28 20:46:00;;;;;;;2.55;1.30;;;12.40;49.20;;;;;;20722782;28;20030;-82
2021/12/28 20:56:01;;;;;;;1.30;1.15;;;12.40;49.40;;;;;;20742194;28;20038;-81
2021/12/28 21:06:01;;;;;;;1.50;0.85;;;12.40;49.30;;;;;;20725629;28;20065;-75
2021/12/28 21:16:02;;;;;;;2.00;0.93;;;12.30;49.40;;;;;;20724165;28;20036;-80
2021/12/28 21:26:02;;;;;;;1.67;0.90;;;12.30;50.20;;;;;;20722920;28;20034;-79
2021/12/28 21:36:04;;;;;;;0.93;0.82;;;12.30;49.60;;;;;;20690696;28;20300;-80
2021/12/28 21:46:05;;;;;;;0.70;0.65;;;12.30;49.70;;;;;;20711773;28;20045;-79
2021/12/28 21:56:05;;;;;;;1.05;0.60;;;12.20;49.80;;;;;;20723467;28;20526;-79
2021/12/28 22:06:09;;;;;;;1.02;0.63;;;12.20;49.80;;;;;;20702476;28;20030;-79
2021/12/28 22:16:10;;;;;;;1.48;1.00;;;12.20;49.90;;;;;;20660683;28;20064;-79
2021/12/28 22:26:11;;;;;;;1.48;0.95;;;12.20;50.00;;;;;;20681161;28;20369;-79
2021/12/28 22:36:11;;;;;;;2.17;1.05;;;12.20;50.10;;;;;;20669785;28;20038;-80
2021/12/28 22:46:14;;;;;;;1.67;0.93;;;12.10;50.00;;;;;;20671007;28;20070;-79
2021/12/28 22:56:18;;;;;;;1.85;1.15;;;12.10;50.10;;;;;;20666607;28;20053;-79
2021/12/28 23:06:18;;;;;;;3.03;1.08;;;12.10;50.20;;;;;;20704337;28;20042;-79
2021/12/28 23:16:25;;;;;;;3.40;1.08;;;12.10;50.20;;;;;;20668286;28;20030;-78
2021/12/28 23:26:26;;;;;;;2.57;1.30;;;12.10;50.30;;;;;;20687945;28;20042;-80
2021/12/28 23:36:27;;;;;;;2.58;1.10;;;12.10;50.40;;;;;;20687181;28;20141;-79
2021/12/28 23:46:27;;;;;;;2.42;1.25;;;12.00;50.40;;;;;;20709234;28;20038;-80
2021/12/28 23:56:29;;;;;;;2.47;1.13;;;12.00;50.50;;;;;;20644562;28;20038;-79
